createdAt,value
2023-08-18T00:01:51.517Z,101414.25
2023-08-18T00:04:18.416Z,101424.00
2023-08-18T00:06:45.372Z,101415.03
2023-08-18T00:09:12.523Z,101414.22
2023-08-18T00:11:39.513Z,101413.03
2023-08-18T00:14:06.326Z,101414.22
2023-08-18T00:16:33.252Z,101414.63
2023-08-18T00:19:01.640Z,101410.16
2023-08-18T00:21:28.765Z,101405.69
2023-08-18T00:23:55.627Z,101404.88
2023-08-18T00:26:22.501Z,101393.06
2023-08-18T00:28:49.464Z,101387.38
2023-08-18T00:31:16.464Z,101389.78
2023-08-18T00:33:43.575Z,101381.22
2023-08-18T00:36:11.863Z,101389.69
2023-08-18T00:38:38.777Z,101382.34
2023-08-18T00:41:05.580Z,101385.19
2023-08-18T00:43:32.520Z,101393.25
2023-08-18T00:45:59.738Z,101389.53
2023-08-18T00:48:27.584Z,101393.56
2023-08-18T00:50:55.068Z,101402.44
2023-08-18T00:53:23.787Z,101398.34
2023-08-18T00:55:50.993Z,101393.91
2023-08-18T00:58:18.379Z,101385.75
2023-08-18T01:00:46.396Z,101384.03
2023-08-18T01:03:13.426Z,101383.59
2023-08-18T01:05:40.500Z,101373.84
2023-08-18T01:08:07.411Z,101382.34
2023-08-18T01:10:43.641Z,101366.91
2023-08-18T01:13:15.676Z,101364.88
2023-08-18T01:15:46.156Z,101364.84
2023-08-18T01:18:14.415Z,101369.66
2023-08-18T01:20:41.759Z,101372.50
2023-08-18T01:23:10.133Z,101373.69
2023-08-18T01:25:37.203Z,101369.19
2023-08-18T01:28:05.016Z,101371.19
2023-08-18T01:30:36.530Z,101375.59
2023-08-18T01:33:13.913Z,101374.81
2023-08-18T01:35:44.099Z,101360.13
2023-08-18T01:38:13.294Z,101354.50
2023-08-18T01:40:41.573Z,101352.06
2023-08-18T01:43:08.399Z,101353.25
2023-08-18T01:45:35.861Z,101346.72
2023-08-18T01:48:03.448Z,101343.06
2023-08-18T01:50:30.392Z,101346.66
2023-08-18T01:52:57.245Z,101346.63
2023-08-18T01:55:25.525Z,101357.19
2023-08-18T01:57:52.405Z,101352.69
2023-08-18T02:00:21.061Z,101348.28
2023-08-18T02:02:48.619Z,101348.38
2023-08-18T02:05:16.049Z,101347.63
2023-08-18T02:07:42.847Z,101341.56
2023-08-18T02:10:10.312Z,101347.72
2023-08-18T02:12:38.956Z,101353.47
2023-08-18T02:15:07.104Z,101353.88
2023-08-18T02:17:34.231Z,101348.28
2023-08-18T02:20:01.318Z,101347.50
2023-08-18T02:22:28.200Z,101352.41
2023-08-18T02:24:55.439Z,101343.88
2023-08-18T02:27:22.309Z,101343.03
2023-08-18T02:29:51.311Z,101329.28
2023-08-18T02:32:19.730Z,101326.09
2023-08-18T02:34:47.220Z,101324.50
2023-08-18T02:37:14.262Z,101342.72
2023-08-18T02:39:41.182Z,101348.81
2023-08-18T02:42:08.225Z,101337.03
2023-08-18T02:44:35.211Z,101336.69
2023-08-18T02:47:04.201Z,101333.84
2023-08-18T02:49:31.208Z,101339.97
2023-08-18T02:51:58.128Z,101339.16
2023-08-18T02:54:25.059Z,101335.91
2023-08-18T02:56:51.976Z,101331.09
2023-08-18T02:59:19.180Z,101333.09
2023-08-18T03:01:46.425Z,101339.63
2023-08-18T03:04:15.697Z,101336.41
2023-08-18T03:06:42.966Z,101322.19
2023-08-18T03:09:10.220Z,101312.03
2023-08-18T03:11:37.141Z,101322.06
2023-08-18T03:14:06.899Z,101325.00
2023-08-18T03:16:33.769Z,101331.53
2023-08-18T03:19:00.751Z,101315.34
2023-08-18T03:21:29.182Z,101315.66
2023-08-18T03:23:56.112Z,101320.97
2023-08-18T03:26:23.092Z,101312.44
2023-08-18T03:28:49.983Z,101310.84
2023-08-18T03:31:16.892Z,101303.97
2023-08-18T03:33:43.793Z,101289.78
2023-08-18T03:36:10.807Z,101294.28
2023-08-18T03:38:39.078Z,101293.84
2023-08-18T03:41:07.622Z,101303.59
2023-08-18T03:43:35.158Z,101299.97
2023-08-18T03:46:04.662Z,101294.28
2023-08-18T03:48:31.557Z,101276.00
2023-08-18T03:50:58.579Z,101292.25
2023-08-18T03:53:25.557Z,101293.47
2023-08-18T03:55:57.083Z,101286.56
2023-08-18T03:58:23.955Z,101284.53
2023-08-18T04:00:50.885Z,101290.22
2023-08-18T04:03:17.881Z,101286.97
2023-08-18T04:05:48.077Z,101274.72
2023-08-18T04:08:17.098Z,101282.91
2023-08-18T04:10:44.119Z,101277.66
2023-08-18T04:13:12.456Z,101277.66
2023-08-18T04:15:39.483Z,101284.13
2023-08-18T04:18:06.469Z,101273.94
2023-08-18T04:20:33.342Z,101275.63
2023-08-18T04:23:00.237Z,101267.91
2023-08-18T04:25:27.143Z,101269.16
2023-08-18T04:27:53.991Z,101265.91
2023-08-18T04:30:22.313Z,101265.09
2023-08-18T04:32:49.512Z,101259.44
2023-08-18T04:35:16.470Z,101265.94
2023-08-18T04:37:43.374Z,101263.88
2023-08-18T04:40:10.753Z,101266.34
2023-08-18T04:42:38.503Z,101259.03
2023-08-18T04:45:06.524Z,101278.53
2023-08-18T04:47:34.803Z,101277.31
2023-08-18T04:50:01.657Z,101274.06
2023-08-18T04:52:28.959Z,101264.72
2023-08-18T04:54:55.995Z,101272.84
2023-08-18T04:57:22.796Z,101274.06
2023-08-18T04:59:49.783Z,101275.69
2023-08-18T05:02:16.793Z,101273.63
2023-08-18T05:04:45.199Z,101268.78
2023-08-18T05:07:12.051Z,101272.00
2023-08-18T05:09:39.110Z,101272.44
2023-08-18T05:12:09.107Z,101269.56
2023-08-18T05:14:36.371Z,101276.50
2023-08-18T05:17:03.283Z,101272.81
2023-08-18T05:19:30.159Z,101271.19
2023-08-18T05:21:59.128Z,101268.34
2023-08-18T05:24:25.978Z,101262.69
2023-08-18T05:26:53.152Z,101271.56
2023-08-18T05:29:20.029Z,101268.75
2023-08-18T05:31:47.194Z,101259.41
2023-08-18T05:34:14.391Z,101261.44
2023-08-18T05:36:41.365Z,101258.59
2023-08-18T05:39:09.751Z,101263.03
2023-08-18T05:41:36.734Z,101261.84
2023-08-18T05:44:04.051Z,101256.53
2023-08-18T05:46:31.655Z,101258.59
2023-08-18T05:48:58.584Z,101258.22
2023-08-18T05:51:25.662Z,101259.78
2023-08-18T05:53:52.467Z,101256.09
2023-08-18T05:56:20.771Z,101263.44
2023-08-18T05:58:47.838Z,101262.28
2023-08-18T06:01:16.349Z,101260.63
2023-08-18T06:03:43.237Z,101252.94
2023-08-18T06:06:10.309Z,101252.06
2023-08-18T06:08:37.293Z,101252.88
2023-08-18T06:11:04.410Z,101250.84
2023-08-18T06:13:32.834Z,101244.34
2023-08-18T06:16:04.063Z,101243.91
2023-08-18T06:18:30.962Z,101237.47
2023-08-18T06:20:57.847Z,101240.25
2023-08-18T06:23:24.742Z,101241.03
2023-08-18T06:25:51.592Z,101240.16
2023-08-18T06:28:18.577Z,101245.06
2023-08-18T06:30:46.847Z,101235.41
2023-08-18T06:33:13.766Z,101238.63
2023-08-18T06:35:40.704Z,101240.16
2023-08-18T06:38:07.530Z,101250.31
2023-08-18T06:40:34.356Z,101251.19
2023-08-18T06:43:01.157Z,101247.88
2023-08-18T06:45:28.042Z,101245.94
2023-08-18T06:47:56.394Z,101241.78
2023-08-18T06:50:23.250Z,101248.44
2023-08-18T06:52:50.068Z,101251.13
2023-08-18T06:55:17.968Z,101250.69
2023-08-18T06:57:49.434Z,101254.06
2023-08-18T07:00:18.601Z,101262.91
2023-08-18T07:02:47.225Z,101258.09
2023-08-18T07:05:15.495Z,101259.91
2023-08-18T07:07:42.346Z,101267.25
2023-08-18T07:10:10.544Z,101264.88
2023-08-18T07:12:37.562Z,101264.56
2023-08-18T07:15:05.135Z,101263.50
2023-08-18T07:17:31.951Z,101263.94
2023-08-18T07:19:58.839Z,101259.34
2023-08-18T07:22:27.781Z,101260.44
2023-08-18T07:24:55.038Z,101258.06
2023-08-18T07:27:21.908Z,101264.53
2023-08-18T07:29:49.748Z,101261.91
2023-08-18T07:32:17.228Z,101265.22
2023-08-18T07:34:44.154Z,101260.22
2023-08-18T07:37:11.134Z,101268.41
2023-08-18T07:39:39.599Z,101273.69
2023-08-18T07:42:07.124Z,101274.09
2023-08-18T07:44:34.319Z,101273.25
2023-08-18T07:47:01.462Z,101280.88
2023-08-18T07:49:29.053Z,101274.47
2023-08-18T07:51:55.973Z,101282.31
2023-08-18T07:54:24.562Z,101279.53
2023-08-18T07:56:54.043Z,101283.75
2023-08-18T07:59:21.286Z,101279.97
2023-08-18T08:01:48.519Z,101275.72
2023-08-18T08:04:15.518Z,101281.25
2023-08-18T08:06:42.470Z,101277.53
2023-08-18T08:09:09.299Z,101290.69
2023-08-18T08:11:36.123Z,101294.50
2023-08-18T08:14:04.663Z,101294.19
2023-08-18T08:16:31.512Z,101294.56
2023-08-18T08:18:58.338Z,101295.91
2023-08-18T08:21:25.797Z,101298.81
2023-08-18T08:23:52.627Z,101293.72
2023-08-18T08:26:19.507Z,101293.47
2023-08-18T08:28:46.382Z,101298.91
2023-08-18T08:31:15.105Z,101296.56
2023-08-18T08:33:41.961Z,101300.94
2023-08-18T08:36:08.740Z,101303.44
2023-08-18T08:38:35.957Z,101305.81
2023-08-18T08:41:02.821Z,101304.16
2023-08-18T08:43:30.066Z,101295.44
2023-08-18T08:45:59.442Z,101298.66
2023-08-18T08:48:33.141Z,101298.38
2023-08-18T08:51:06.751Z,101286.22
2023-08-18T08:53:38.455Z,101288.56
2023-08-18T08:56:09.709Z,101283.97
2023-08-18T08:58:37.471Z,101285.56
2023-08-18T09:01:08.133Z,101281.97
2023-08-18T09:03:37.022Z,101290.03
2023-08-18T09:06:04.303Z,101286.81
2023-08-18T09:08:31.316Z,101286.56
2023-08-18T09:10:58.485Z,101278.66
2023-08-18T09:13:25.659Z,101276.50
2023-08-18T09:15:52.526Z,101273.63
2023-08-18T09:18:20.436Z,101279.91
2023-08-18T09:20:48.857Z,101290.63
2023-08-18T09:23:20.335Z,101292.19
2023-08-18T09:25:50.989Z,101292.81
2023-08-18T09:28:19.355Z,101295.19
2023-08-18T09:30:48.236Z,101290.66
2023-08-18T09:33:17.574Z,101283.03
2023-08-18T09:35:57.119Z,101283.31
2023-08-18T09:38:28.441Z,101279.69
2023-08-18T09:40:57.299Z,101260.50
2023-08-18T09:43:24.895Z,101265.00
2023-08-18T09:45:53.911Z,101277.59
2023-08-18T09:48:24.161Z,101270.63
2023-08-18T09:50:55.108Z,101275.28
2023-08-18T09:53:25.455Z,101289.13
2023-08-18T09:55:57.401Z,101288.13
2023-08-18T09:58:33.216Z,101279.13
2023-08-18T10:01:00.330Z,101268.09
2023-08-18T10:03:28.089Z,101243.63
2023-08-18T10:05:56.562Z,101246.28
2023-08-18T10:08:24.114Z,101245.97
2023-08-18T10:10:51.705Z,101241.38
2023-08-18T10:13:19.606Z,101238.97
2023-08-18T10:15:48.224Z,101234.38
2023-08-18T10:18:15.647Z,101233.97
2023-08-18T10:20:50.320Z,101229.47
2023-08-18T10:23:19.814Z,101233.06
2023-08-18T10:25:50.416Z,101221.47
2023-08-18T10:28:20.794Z,101218.25
2023-08-18T10:30:52.347Z,101225.50
2023-08-18T10:33:31.009Z,101204.78
2023-08-18T10:35:58.693Z,101212.31
2023-08-18T10:38:30.560Z,101212.97
2023-08-18T10:40:57.848Z,101210.16
2023-08-18T10:43:27.840Z,101209.03
2023-08-18T10:45:59.995Z,101219.81
2023-08-18T10:48:31.396Z,101210.34
2023-08-18T10:50:58.209Z,101212.06
2023-08-18T10:53:25.095Z,101223.44
2023-08-18T10:55:56.670Z,101224.31
2023-08-18T10:58:23.537Z,101232.91
2023-08-18T11:00:51.212Z,101237.91
2023-08-18T11:03:18.401Z,101228.66
2023-08-18T11:05:46.593Z,101219.41
2023-08-18T11:08:13.584Z,101225.00
2023-08-18T11:10:41.417Z,101226.03
2023-08-18T11:13:12.060Z,101233.59
2023-08-18T11:15:39.028Z,101224.34
2023-08-18T11:18:06.537Z,101213.75
2023-08-18T11:20:33.524Z,101209.84
2023-08-18T11:23:00.967Z,101204.13
2023-08-18T11:25:28.081Z,101212.91
2023-08-18T11:27:55.051Z,101218.31
2023-08-18T11:30:23.554Z,101229.38
2023-08-18T11:32:51.160Z,101232.56
2023-08-18T11:35:20.305Z,101222.94
2023-08-18T11:37:50.071Z,101234.13
2023-08-18T11:40:19.177Z,101232.13
2023-08-18T11:42:47.529Z,101219.72
2023-08-18T11:45:16.885Z,101231.41
2023-08-18T11:47:46.130Z,101236.25
2023-08-18T11:50:20.849Z,101225.66
2023-08-18T11:52:51.347Z,101223.31
2023-08-18T11:55:30.226Z,101218.19
2023-08-18T11:57:57.175Z,101201.72
2023-08-18T12:00:32.202Z,101199.81
2023-08-18T12:03:00.545Z,101190.34
2023-08-18T12:05:28.174Z,101185.19
2023-08-18T12:07:55.298Z,101191.03
2023-08-18T12:10:23.287Z,101188.84
2023-08-18T12:12:53.321Z,101190.94
2023-08-18T12:15:21.655Z,101200.38
2023-08-18T12:17:48.556Z,101188.00
2023-08-18T12:20:20.317Z,101186.88
2023-08-18T12:22:47.847Z,101190.34
2023-08-18T12:25:14.821Z,101180.34
2023-08-18T12:27:42.662Z,101189.06
2023-08-18T12:30:10.381Z,101195.41
2023-08-18T12:32:37.263Z,101191.75
2023-08-18T12:35:05.414Z,101186.00
2023-08-18T12:37:34.861Z,101192.53
2023-08-18T12:40:01.680Z,101190.56
2023-08-18T12:42:29.329Z,101180.47
2023-08-18T12:44:56.299Z,101178.94
2023-08-18T12:47:23.179Z,101181.97
2023-08-18T12:49:50.106Z,101174.69
2023-08-18T12:52:17.078Z,101175.31
2023-08-18T12:54:46.552Z,101172.28
2023-08-18T12:57:13.380Z,101172.78
2023-08-18T12:59:40.262Z,101165.84
2023-08-18T13:02:07.199Z,101167.19
2023-08-18T13:04:34.223Z,101164.16
2023-08-18T13:07:01.321Z,101156.50
2023-08-18T13:09:28.361Z,101148.66
2023-08-18T13:11:56.916Z,101146.72
2023-08-18T13:14:26.746Z,101147.53
2023-08-18T13:16:58.859Z,101157.75
2023-08-18T13:19:26.838Z,101158.81
2023-08-18T13:21:58.300Z,101167.69
2023-08-18T13:24:26.912Z,101157.31
2023-08-18T13:26:57.032Z,101157.38
2023-08-18T13:29:26.079Z,101156.97
2023-08-18T13:31:56.246Z,101164.81
2023-08-18T13:34:23.327Z,101161.84
2023-08-18T13:36:50.263Z,101163.53
2023-08-18T13:39:20.275Z,101158.84
2023-08-18T13:41:47.647Z,101159.66
2023-08-18T13:44:14.538Z,101156.06
2023-08-18T13:46:42.866Z,101154.69
2023-08-18T13:49:12.188Z,101150.88
2023-08-18T13:51:40.824Z,101155.66
2023-08-18T13:54:12.654Z,101151.06
2023-08-18T13:56:40.943Z,101159.31
2023-08-18T13:59:07.825Z,101146.13
2023-08-18T14:01:35.647Z,101141.03
2023-08-18T14:04:04.614Z,101134.72
2023-08-18T14:06:31.452Z,101123.44
2023-08-18T14:08:58.543Z,101122.22
2023-08-18T14:11:26.527Z,101101.44
2023-08-18T14:13:53.376Z,101103.09
2023-08-18T14:16:20.347Z,101088.69
2023-08-18T14:18:47.209Z,101086.91
2023-08-18T14:21:15.564Z,101077.88
2023-08-18T14:23:42.348Z,101063.41
2023-08-18T14:26:09.303Z,101063.41
2023-08-18T14:28:36.316Z,101055.19
2023-08-18T14:31:05.197Z,101053.56
2023-08-18T14:33:45.636Z,101052.41
2023-08-18T14:36:12.902Z,101052.59
2023-08-18T14:38:41.096Z,101051.16
2023-08-18T14:41:08.037Z,101053.44
2023-08-18T14:43:36.505Z,101041.75
2023-08-18T14:46:05.508Z,101035.63
2023-08-18T14:48:32.417Z,101050.84
2023-08-18T14:50:59.246Z,101045.13
2023-08-18T14:53:26.153Z,101031.03
2023-08-18T14:55:54.856Z,101033.25
2023-08-18T14:58:26.743Z,101030.72
2023-08-18T15:00:53.789Z,101031.66
2023-08-18T15:03:20.729Z,101028.56
2023-08-18T15:05:47.672Z,101028.34
2023-08-18T15:08:14.839Z,101031.75
2023-08-18T15:10:41.892Z,101027.75
2023-08-18T15:13:10.223Z,101022.09
2023-08-18T15:15:37.157Z,101016.66
2023-08-18T15:18:04.917Z,101029.22
2023-08-18T15:20:32.431Z,101021.41
2023-08-18T15:22:59.870Z,101033.31
2023-08-18T15:25:27.225Z,101034.03
2023-08-18T15:27:54.192Z,101032.16
2023-08-18T15:30:22.686Z,101025.97
2023-08-18T15:32:50.176Z,101029.97
2023-08-18T15:35:17.184Z,101037.59
2023-08-18T15:37:44.026Z,101052.28
2023-08-18T15:40:11.547Z,101048.00
2023-08-18T15:42:38.536Z,101056.63
2023-08-18T15:45:06.351Z,101055.16
2023-08-18T15:47:35.990Z,101057.09
2023-08-18T15:50:04.435Z,101050.44
2023-08-18T15:52:31.310Z,101045.03
2023-08-18T15:54:58.159Z,101029.69
2023-08-18T15:57:25.170Z,101039.41
2023-08-18T15:59:52.079Z,101033.78
2023-08-18T16:02:18.996Z,101035.66
2023-08-18T16:04:48.791Z,101033.75
2023-08-18T16:07:15.795Z,101033.28
2023-08-18T16:09:42.680Z,101035.22
2023-08-18T16:12:10.026Z,101028.88
2023-08-18T16:17:06.959Z,101006.94
2023-08-18T16:19:34.005Z,101002.00
2023-08-18T16:22:02.181Z,100990.34
2023-08-18T16:24:28.990Z,100979.31
2023-08-18T16:26:59.068Z,100992.22
2023-08-18T16:29:26.383Z,100988.66
2023-08-18T16:31:53.296Z,100991.88
2023-08-18T16:34:22.683Z,100987.06
2023-08-18T16:36:50.226Z,100982.81
2023-08-18T16:39:18.639Z,100972.94
2023-08-18T16:41:45.894Z,100969.34
2023-08-18T16:44:12.969Z,100968.03
2023-08-18T16:46:40.980Z,100970.88
2023-08-18T16:49:08.335Z,100963.66
2023-08-18T16:51:36.093Z,100971.22
2023-08-18T16:54:03.128Z,100970.84
2023-08-18T16:56:31.861Z,100972.50
2023-08-18T16:58:58.707Z,100961.72
2023-08-18T17:01:25.555Z,100974.91
2023-08-18T17:03:52.876Z,100971.00
2023-08-18T17:06:19.797Z,100973.50
2023-08-18T17:08:46.783Z,100972.69
2023-08-18T17:11:13.656Z,100974.25
2023-08-18T17:13:41.986Z,100975.63
2023-08-18T17:16:08.848Z,100976.78
2023-08-18T17:18:35.765Z,100975.22
2023-08-18T17:21:02.769Z,100974.41
2023-08-18T17:23:29.750Z,100980.53
2023-08-18T17:25:56.668Z,100977.50
2023-08-18T17:28:23.629Z,100975.50
2023-08-18T17:30:52.001Z,100953.75
2023-08-18T17:33:19.070Z,100932.84
2023-08-18T17:35:46.112Z,100930.44
2023-08-18T17:38:14.054Z,100923.91
2023-08-18T17:40:43.205Z,100927.44
2023-08-18T17:43:10.201Z,100921.25
2023-08-18T17:45:41.532Z,100916.44
2023-08-18T17:48:10.360Z,100919.72
2023-08-18T17:50:40.073Z,100911.69
2023-08-18T17:53:07.624Z,100901.84
2023-08-18T17:55:34.782Z,100902.78
2023-08-18T17:58:01.804Z,100903.94
2023-08-18T18:00:29.869Z,100906.94
2023-08-18T18:02:57.148Z,100900.53
2023-08-18T18:05:25.784Z,100896.63
2023-08-18T18:07:52.871Z,100905.16
2023-08-18T18:10:21.514Z,100904.81
2023-08-18T18:12:49.176Z,100894.03
2023-08-18T18:15:16.493Z,100903.09
2023-08-18T18:17:43.529Z,100904.13
2023-08-18T18:20:13.143Z,100905.50
2023-08-18T18:22:41.671Z,100899.75
2023-08-18T18:25:09.339Z,100901.09
2023-08-18T18:27:36.691Z,100905.09
2023-08-18T18:30:04.147Z,100899.75
2023-08-18T18:32:31.273Z,100899.06
2023-08-18T18:34:58.373Z,100895.84
2023-08-18T18:37:25.328Z,100891.13
2023-08-18T18:39:53.769Z,100898.34
2023-08-18T18:42:20.757Z,100897.84
2023-08-18T18:44:47.722Z,100895.59
2023-08-18T18:47:16.373Z,100898.34
2023-08-18T18:49:43.637Z,100888.72
2023-08-18T18:52:10.662Z,100890.91
2023-08-18T18:54:37.545Z,100885.41
2023-08-18T18:57:06.143Z,100898.72
2023-08-18T18:59:33.213Z,100885.03
2023-08-18T19:02:00.058Z,100881.56
2023-08-18T19:04:27.090Z,100890.88
2023-08-18T19:06:53.916Z,100892.47
2023-08-18T19:09:20.824Z,100893.63
2023-08-18T19:11:49.281Z,100893.91
2023-08-18T19:14:17.734Z,100892.31
2023-08-18T19:16:44.588Z,100897.84
2023-08-18T19:19:11.662Z,100892.00
2023-08-18T19:21:44.401Z,100892.97
2023-08-18T19:24:11.318Z,100887.50
2023-08-18T19:26:38.314Z,100892.91
2023-08-18T19:29:05.389Z,100894.31
2023-08-18T19:31:34.027Z,100896.94
2023-08-18T19:34:01.005Z,100888.16
2023-08-18T19:36:27.857Z,100900.03
2023-08-18T19:38:57.469Z,100905.81
2023-08-18T19:41:24.465Z,100900.19
2023-08-18T19:43:51.342Z,100902.75
2023-08-18T19:46:18.298Z,100900.00
2023-08-18T19:48:46.552Z,100894.81
2023-08-18T19:51:13.488Z,100898.47
2023-08-18T19:53:40.331Z,100899.53
2023-08-18T19:56:07.136Z,100893.13
2023-08-18T19:58:34.047Z,100884.44
2023-08-18T20:01:04.262Z,100884.59
2023-08-18T20:03:33.709Z,100880.47
2023-08-18T20:06:05.201Z,100869.69
2023-08-18T20:08:32.314Z,100873.75
2023-08-18T20:10:59.254Z,100878.13
2023-08-18T20:13:26.327Z,100871.72
2023-08-18T20:15:54.999Z,100883.78
2023-08-18T20:18:21.871Z,100881.56
2023-08-18T20:20:48.761Z,100881.63
2023-08-18T20:23:17.056Z,100886.38
2023-08-18T20:25:44.003Z,100883.56
2023-08-18T20:28:10.987Z,100887.69
2023-08-18T20:30:43.456Z,100888.97
2023-08-18T20:33:11.548Z,100872.63
2023-08-18T20:35:38.547Z,100872.41
2023-08-18T20:38:05.470Z,100880.66
2023-08-18T20:40:34.399Z,100875.03
2023-08-18T20:43:01.241Z,100865.16
2023-08-18T20:45:28.077Z,100859.16
2023-08-18T20:47:54.984Z,100868.53
2023-08-18T20:50:21.908Z,100868.03
2023-08-18T20:52:48.742Z,100866.53
2023-08-18T20:55:15.826Z,100867.47
2023-08-18T20:57:44.045Z,100862.47
2023-08-18T21:00:11.808Z,100864.03
2023-08-18T21:02:38.844Z,100867.41
2023-08-18T21:05:06.454Z,100867.22
2023-08-18T21:07:34.296Z,100860.78
2023-08-18T21:10:01.751Z,100857.66
2023-08-18T21:12:28.762Z,100862.66
2023-08-18T21:14:57.150Z,100861.19
2023-08-18T21:17:26.594Z,100863.16
2023-08-18T21:19:53.825Z,100872.25
2023-08-18T21:22:20.714Z,100861.19
2023-08-18T21:24:48.202Z,100860.34
2023-08-18T21:27:15.076Z,100856.16
2023-08-18T21:29:41.952Z,100857.84
2023-08-18T21:32:10.210Z,100856.38
2023-08-18T21:34:37.171Z,100852.03
2023-08-18T21:37:05.443Z,100851.66
2023-08-18T21:39:33.960Z,100851.06
2023-08-18T21:42:00.919Z,100840.06
2023-08-18T21:44:27.753Z,100837.41
2023-08-18T21:46:54.575Z,100846.09
2023-08-18T21:49:22.953Z,100835.16
2023-08-18T21:51:49.790Z,100838.38
2023-08-18T21:54:16.745Z,100832.03
2023-08-18T21:56:46.670Z,100828.31
2023-08-18T21:59:13.524Z,100828.50
2023-08-18T22:01:40.539Z,100831.13
2023-08-18T22:04:07.342Z,100824.06
2023-08-18T22:06:35.654Z,100821.00
2023-08-18T22:09:02.926Z,100815.59
2023-08-18T22:11:29.836Z,100821.06
2023-08-18T22:13:56.634Z,100810.50
2023-08-18T22:16:23.618Z,100810.97
2023-08-18T22:18:50.482Z,100807.66
2023-08-18T22:21:17.290Z,100800.00
2023-08-18T22:23:45.493Z,100804.16
2023-08-18T22:26:12.425Z,100797.56
2023-08-18T22:28:39.281Z,100796.28
2023-08-18T22:31:06.150Z,100796.53
2023-08-18T22:33:33.076Z,100807.19
2023-08-18T22:36:00.117Z,100804.22
2023-08-18T22:38:27.137Z,100799.16
2023-08-18T22:40:59.959Z,100794.84
2023-08-18T22:43:27.159Z,100799.63
2023-08-18T22:45:54.897Z,100797.16
2023-08-18T22:48:22.481Z,100791.16
2023-08-18T22:50:49.581Z,100787.44
2023-08-18T22:53:16.718Z,100784.38
2023-08-18T22:55:44.059Z,100786.22
2023-08-18T22:58:12.275Z,100773.66
2023-08-18T23:00:39.253Z,100779.16
2023-08-18T23:03:06.255Z,100777.44
2023-08-18T23:05:33.299Z,100779.75
2023-08-18T23:08:00.239Z,100775.63
2023-08-18T23:10:27.164Z,100771.97
2023-08-18T23:12:53.984Z,100768.22
2023-08-18T23:15:22.357Z,100772.50
2023-08-18T23:17:49.215Z,100772.00
2023-08-18T23:20:16.145Z,100772.84
2023-08-18T23:22:43.011Z,100774.94
2023-08-18T23:25:10.507Z,100771.22
2023-08-18T23:27:37.665Z,100765.66
2023-08-18T23:30:05.516Z,100773.22
2023-08-18T23:32:33.820Z,100769.53
2023-08-18T23:35:01.282Z,100765.97
2023-08-18T23:37:28.128Z,100766.91
2023-08-18T23:39:54.995Z,100764.50
2023-08-18T23:42:21.788Z,100763.78
2023-08-18T23:44:48.636Z,100757.94
2023-08-18T23:47:15.678Z,100753.44
2023-08-18T23:49:43.834Z,100751.28
2023-08-18T23:52:10.729Z,100753.25
2023-08-18T23:54:37.578Z,100754.41
2023-08-18T23:57:05.882Z,100752.56
2023-08-18T23:59:32.762Z,100759.31
